createdAt,value
2022-11-11T15:16:09.624Z,102977.25
2022-11-11T15:18:57.948Z,102976.03
2022-11-11T15:22:13.382Z,102983.38
2022-11-11T15:25:07.655Z,102978.31
2022-11-11T15:28:00.639Z,102977.66
2022-11-11T15:30:52.576Z,102976.75
2022-11-11T15:33:35.504Z,102986.19
2022-11-11T15:36:35.453Z,102985.81
2022-11-11T15:39:07.178Z,102982.53
2022-11-11T15:41:39.998Z,102992.09
2022-11-11T15:44:17.279Z,102992.31
2022-11-11T15:46:44.075Z,102996.03
2022-11-11T15:49:32.805Z,102999.69
2022-11-11T15:51:59.731Z,102995.06
2022-11-11T15:54:26.614Z,102990.47
2022-11-11T15:56:55.185Z,102994.19
2022-11-11T15:59:31.761Z,102993.34
2022-11-11T16:01:59.148Z,102991.47
2022-11-11T16:04:54.436Z,102992.56
2022-11-11T16:07:19.449Z,103000.16
2022-11-11T16:09:46.219Z,103000.94
2022-11-11T16:12:17.285Z,102996.75
2022-11-11T16:14:48.332Z,103009.94
2022-11-11T16:17:16.034Z,103004.22
2022-11-11T16:19:49.083Z,103009.81
2022-11-11T16:22:20.688Z,103011.69
2022-11-11T16:24:47.619Z,103018.81
2022-11-11T16:27:18.583Z,103016.50
2022-11-11T16:29:45.021Z,103029.28
2022-11-11T16:32:23.372Z,103024.00
2022-11-11T16:34:51.155Z,103027.75
2022-11-11T16:37:18.085Z,103025.78
2022-11-11T16:39:45.940Z,103031.06
2022-11-11T16:42:29.505Z,103023.91
2022-11-11T16:45:01.603Z,103025.78
2022-11-11T16:47:28.182Z,103031.34
2022-11-11T16:50:17.383Z,103033.22
2022-11-11T16:52:52.641Z,103043.00
2022-11-11T16:55:45.694Z,103043.00
2022-11-11T16:58:20.611Z,103042.56
2022-11-11T17:00:48.076Z,103042.56
2022-11-11T17:03:20.241Z,103041.81
2022-11-11T17:05:48.284Z,103047.06
2022-11-11T17:08:31.596Z,103043.34
2022-11-11T17:10:59.290Z,103043.69
2022-11-11T17:13:27.462Z,103050.03
2022-11-11T17:15:55.994Z,103047.06
2022-11-11T17:18:22.542Z,103041.03
2022-11-11T17:20:49.271Z,103047.41
2022-11-11T17:23:16.356Z,103053.44
2022-11-11T17:25:43.479Z,103056.06
2022-11-11T17:28:09.968Z,103051.91
2022-11-11T17:30:37.617Z,103048.16
2022-11-11T17:33:04.607Z,103050.81
2022-11-11T17:35:31.108Z,103041.72
2022-11-11T17:37:57.626Z,103036.44
2022-11-11T17:40:24.076Z,103032.69
2022-11-11T17:42:50.507Z,103034.91
2022-11-11T17:45:17.237Z,103039.09
2022-11-11T17:47:44.161Z,103039.41
2022-11-11T17:50:11.232Z,103036.31
2022-11-11T17:52:37.904Z,103041.56
2022-11-11T17:55:04.795Z,103037.88
2022-11-11T17:57:32.019Z,103037.88
2022-11-11T17:59:58.498Z,103039.72
2022-11-11T18:02:24.923Z,103040.03
2022-11-11T18:04:51.419Z,103049.06
2022-11-11T18:07:18.018Z,103043.03
2022-11-11T18:09:44.526Z,103047.53
2022-11-11T18:12:11.177Z,103042.25
2022-11-11T18:14:37.619Z,103027.88
2022-11-11T18:17:04.072Z,103038.06
2022-11-11T18:19:30.505Z,103036.22
2022-11-11T18:21:56.958Z,103043.34
2022-11-11T18:24:23.436Z,103038.41
2022-11-11T18:26:49.890Z,103033.91
2022-11-11T18:29:16.307Z,103039.19
2022-11-11T18:31:42.729Z,103038.41
2022-11-11T18:34:09.218Z,103038.75
2022-11-11T18:36:35.652Z,103040.63
2022-11-11T18:39:02.108Z,103042.50
2022-11-11T18:41:28.696Z,103041.72
2022-11-11T18:43:55.252Z,103037.22
2022-11-11T18:46:26.604Z,103046.22
2022-11-11T18:48:54.723Z,103042.81
2022-11-11T18:51:21.620Z,103037.53
2022-11-11T18:53:48.109Z,103031.50
2022-11-11T18:56:16.821Z,103033.38
2022-11-11T18:58:51.002Z,103031.84
2022-11-11T19:01:24.140Z,103032.94
2022-11-11T19:03:57.419Z,103029.19
2022-11-11T19:06:25.655Z,103038.97
2022-11-11T19:08:58.092Z,103036.66
2022-11-11T19:11:25.031Z,103028.75
2022-11-11T19:13:51.944Z,103035.56
2022-11-11T19:16:22.005Z,103037.44
2022-11-11T19:18:49.107Z,103035.88
2022-11-11T19:21:17.825Z,103027.97
2022-11-11T19:23:45.776Z,103025.72
2022-11-11T19:26:12.916Z,103034.78
2022-11-11T19:28:40.225Z,103027.97
2022-11-11T19:31:14.735Z,103030.22
2022-11-11T19:33:42.472Z,103032.06
2022-11-11T19:36:11.656Z,103038.09
2022-11-11T19:38:38.797Z,103035.47
2022-11-11T19:41:09.846Z,103036.56
2022-11-11T19:43:36.687Z,103039.53
2022-11-11T19:46:04.848Z,103050.84
2022-11-11T19:48:31.332Z,103046.34
2022-11-11T19:51:13.075Z,103056.09
2022-11-11T19:53:40.380Z,103056.09
2022-11-11T19:56:09.888Z,103058.72
2022-11-11T19:58:37.794Z,103061.38
2022-11-11T20:01:08.446Z,103061.69
2022-11-11T20:03:35.878Z,103073.75
2022-11-11T20:06:04.582Z,103069.94
2022-11-11T20:08:32.531Z,103083.88
2022-11-11T20:11:09.313Z,103081.53
2022-11-11T20:13:39.925Z,103088.38
2022-11-11T20:16:09.076Z,103086.03
2022-11-11T20:18:35.567Z,103092.84
2022-11-11T20:21:04.422Z,103082.63
2022-11-11T20:23:31.142Z,103086.81
2022-11-11T20:26:04.226Z,103081.88
2022-11-11T20:28:30.661Z,103088.66
2022-11-11T20:30:57.123Z,103089.00
2022-11-11T20:33:23.703Z,103091.63
2022-11-11T20:35:50.252Z,103093.50
2022-11-11T20:38:16.694Z,103105.88
2022-11-11T20:40:43.223Z,103105.88
2022-11-11T20:43:09.743Z,103108.53
2022-11-11T20:45:36.216Z,103113.78
2022-11-11T20:48:02.683Z,103110.41
2022-11-11T20:50:29.718Z,103115.69
2022-11-11T20:52:56.238Z,103129.59
2022-11-11T20:55:22.812Z,103125.44
2022-11-11T20:57:49.254Z,103125.44
2022-11-11T21:00:16.255Z,103124.66
2022-11-11T21:02:42.845Z,103121.28
2022-11-11T21:05:09.622Z,103125.75
2022-11-11T21:07:36.104Z,103125.00
2022-11-11T21:10:02.552Z,103121.28
2022-11-11T21:12:28.986Z,103127.31
2022-11-11T21:14:55.441Z,103131.03
2022-11-11T21:17:21.924Z,103130.25
2022-11-11T21:19:48.364Z,103131.34
2022-11-11T21:22:14.792Z,103136.63
2022-11-11T21:24:41.248Z,103133.22
2022-11-11T21:27:07.736Z,103131.34
2022-11-11T21:29:34.180Z,103127.19
2022-11-11T21:32:00.640Z,103123.47
2022-11-11T21:34:27.101Z,103124.53
2022-11-11T21:36:53.603Z,103130.59
2022-11-11T21:39:20.134Z,103131.72
2022-11-11T21:41:46.552Z,103132.44
2022-11-11T21:44:12.997Z,103131.34
2022-11-11T21:46:39.671Z,103130.94
2022-11-11T21:49:06.730Z,103131.22
2022-11-11T21:51:35.252Z,103126.75
2022-11-11T21:54:05.009Z,103120.69
2022-11-11T21:56:34.544Z,103127.06
2022-11-11T21:59:03.076Z,103121.78
2022-11-11T22:01:31.951Z,103119.94
2022-11-11T22:04:04.478Z,103121.00
2022-11-11T22:06:32.494Z,103121.00
2022-11-11T22:09:00.071Z,103117.63
2022-11-11T22:11:30.585Z,103114.97
2022-11-11T22:13:58.386Z,103114.22
2022-11-11T22:16:27.643Z,103114.22
2022-11-11T22:18:56.573Z,103112.69
2022-11-11T22:21:26.574Z,103120.59
2022-11-11T22:23:55.178Z,103117.97
2022-11-11T22:26:22.936Z,103123.22
2022-11-11T22:28:53.861Z,103122.09
2022-11-11T22:31:23.733Z,103126.63
2022-11-11T22:34:04.109Z,103131.13
2022-11-11T22:36:32.044Z,103128.50
2022-11-11T22:38:59.324Z,103126.97
2022-11-11T22:41:28.540Z,103134.09
2022-11-11T22:44:00.275Z,103138.25
2022-11-11T22:46:28.962Z,103137.50
2022-11-11T22:49:01.148Z,103141.97
2022-11-11T22:51:29.266Z,103141.22
2022-11-11T22:53:59.363Z,103140.13
2022-11-11T22:56:26.808Z,103146.47
2022-11-11T22:58:54.131Z,103139.03
2022-11-11T23:01:30.540Z,103141.97
2022-11-11T23:04:00.139Z,103135.19
2022-11-11T23:06:29.249Z,103136.72
2022-11-11T23:08:55.920Z,103148.03
2022-11-11T23:11:25.589Z,103150.97
2022-11-11T23:13:52.669Z,103147.25
2022-11-11T23:16:20.722Z,103153.59
2022-11-11T23:18:47.378Z,103154.38
2022-11-11T23:21:19.549Z,103153.28
2022-11-11T23:23:47.544Z,103157.00
2022-11-11T23:26:16.866Z,103151.75
2022-11-11T23:28:44.180Z,103155.47
2022-11-11T23:31:13.661Z,103158.88
2022-11-11T23:33:42.222Z,103163.38
2022-11-11T23:36:11.321Z,103159.22
2022-11-11T23:38:38.112Z,103155.81
2022-11-11T23:41:05.352Z,103164.47
2022-11-11T23:43:31.869Z,103157.69
2022-11-11T23:45:58.318Z,103160.31
2022-11-11T23:48:25.915Z,103155.03
2022-11-11T23:50:52.845Z,103156.91
2022-11-11T23:53:19.769Z,103151.63
2022-11-11T23:55:46.485Z,103149.34
2022-11-11T23:58:13.565Z,103155.38
